sensor_id;sensor_type;location;lat;lon;timestamp;temperature;humidity
2851;DHT22;1433;49.976;8.342;2022-12-18T00:01:16;-7.60;99.90
2851;DHT22;1433;49.976;8.342;2022-12-18T00:03:43;-7.70;99.90
2851;DHT22;1433;49.976;8.342;2022-12-18T00:06:09;-7.70;99.90
2851;DHT22;1433;49.976;8.342;2022-12-18T00:08:35;-7.70;99.90
2851;DHT22;1433;49.976;8.342;2022-12-18T00:11:07;-7.80;99.90
2851;DHT22;1433;49.976;8.342;2022-12-18T00:13:34;-7.80;99.90
2851;DHT22;1433;49.976;8.342;2022-12-18T00:16:04;-7.90;99.90
2851;DHT22;1433;49.976;8.342;2022-12-18T00:18:31;-8.00;99.90
2851;DHT22;1433;49.976;8.342;2022-12-18T00:21:03;-8.00;99.90
2851;DHT22;1433;49.976;8.342;2022-12-18T00:23:31;-8.10;99.90
2851;DHT22;1433;49.976;8.342;2022-12-18T00:26:02;-8.10;99.90
2851;DHT22;1433;49.976;8.342;2022-12-18T00:28:29;-8.20;99.90
2851;DHT22;1433;49.976;8.342;2022-12-18T00:31:04;-8.20;99.90
2851;DHT22;1433;49.976;8.342;2022-12-18T00:33:31;-8.20;99.90
2851;DHT22;1433;49.976;8.342;2022-12-18T00:38:32;-8.30;99.90
2851;DHT22;1433;49.976;8.342;2022-12-18T00:40:59;-8.30;99.90
2851;DHT22;1433;49.976;8.342;2022-12-18T00:43:25;-8.30;99.90
2851;DHT22;1433;49.976;8.342;2022-12-18T00:45:52;-8.30;99.90
2851;DHT22;1433;49.976;8.342;2022-12-18T00:48:19;-8.40;99.90
2851;DHT22;1433;49.976;8.342;2022-12-18T00:50:45;-8.30;99.90
2851;DHT22;1433;49.976;8.342;2022-12-18T00:53:13;-8.30;99.90
2851;DHT22;1433;49.976;8.342;2022-12-18T00:55:40;-8.40;99.90
2851;DHT22;1433;49.976;8.342;2022-12-18T00:58:07;-8.40;99.90
2851;DHT22;1433;49.976;8.342;2022-12-18T01:00:35;-8.40;99.90
2851;DHT22;1433;49.976;8.342;2022-12-18T01:03:02;-8.50;99.90
2851;DHT22;1433;49.976;8.342;2022-12-18T01:05:28;-8.50;99.90
2851;DHT22;1433;49.976;8.342;2022-12-18T01:07:55;-8.50;99.90
2851;DHT22;1433;49.976;8.342;2022-12-18T01:10:28;-8.60;99.90
2851;DHT22;1433;49.976;8.342;2022-12-18T01:12:56;-8.60;99.90
2851;DHT22;1433;49.976;8.342;2022-12-18T01:15:24;-8.60;99.90
2851;DHT22;1433;49.976;8.342;2022-12-18T01:17:52;-8.60;99.90
2851;DHT22;1433;49.976;8.342;2022-12-18T01:20:18;-8.70;99.90
2851;DHT22;1433;49.976;8.342;2022-12-18T01:22:46;-8.70;99.90
2851;DHT22;1433;49.976;8.342;2022-12-18T01:25:12;-8.80;99.90
2851;DHT22;1433;49.976;8.342;2022-12-18T01:27:38;-8.80;99.90
2851;DHT22;1433;49.976;8.342;2022-12-18T01:30:05;-8.80;99.90
2851;DHT22;1433;49.976;8.342;2022-12-18T01:32:32;-8.80;99.90
2851;DHT22;1433;49.976;8.342;2022-12-18T01:34:58;-8.90;99.90
2851;DHT22;1433;49.976;8.342;2022-12-18T01:37:27;-8.90;99.90
2851;DHT22;1433;49.976;8.342;2022-12-18T01:39:53;-9.00;99.90
2851;DHT22;1433;49.976;8.342;2022-12-18T01:42:21;-9.00;99.90
2851;DHT22;1433;49.976;8.342;2022-12-18T01:47:57;-9.00;99.90
2851;DHT22;1433;49.976;8.342;2022-12-18T01:53:12;-9.00;99.90
2851;DHT22;1433;49.976;8.342;2022-12-18T01:55:55;-9.00;99.90
2851;DHT22;1433;49.976;8.342;2022-12-18T01:58:19;-9.00;99.90
2851;DHT22;1433;49.976;8.342;2022-12-18T02:00:47;-9.00;99.90
2851;DHT22;1433;49.976;8.342;2022-12-18T02:03:13;-9.00;99.90
2851;DHT22;1433;49.976;8.342;2022-12-18T02:11:02;-9.00;99.90
2851;DHT22;1433;49.976;8.342;2022-12-18T02:13:32;-9.00;99.90
2851;DHT22;1433;49.976;8.342;2022-12-18T02:16:26;-9.00;99.90
2851;DHT22;1433;49.976;8.342;2022-12-18T02:18:41;-9.10;99.90
2851;DHT22;1433;49.976;8.342;2022-12-18T02:23:55;-9.10;99.90
2851;DHT22;1433;49.976;8.342;2022-12-18T02:29:18;-9.10;99.90
2851;DHT22;1433;49.976;8.342;2022-12-18T02:31:49;-9.20;99.90
2851;DHT22;1433;49.976;8.342;2022-12-18T02:34:16;-9.20;99.90
2851;DHT22;1433;49.976;8.342;2022-12-18T02:36:45;-9.20;99.90
2851;DHT22;1433;49.976;8.342;2022-12-18T02:39:13;-9.20;99.90
2851;DHT22;1433;49.976;8.342;2022-12-18T02:41:42;-9.20;99.90
2851;DHT22;1433;49.976;8.342;2022-12-18T02:44:12;-9.10;99.90
2851;DHT22;1433;49.976;8.342;2022-12-18T02:46:45;-9.10;99.90
2851;DHT22;1433;49.976;8.342;2022-12-18T02:54:41;-8.90;99.90
2851;DHT22;1433;49.976;8.342;2022-12-18T02:57:18;-8.80;99.90
2851;DHT22;1433;49.976;8.342;2022-12-18T02:59:49;-8.80;99.90
2851;DHT22;1433;49.976;8.342;2022-12-18T03:04:52;-8.80;99.90
2851;DHT22;1433;49.976;8.342;2022-12-18T03:07:19;-8.80;99.90
2851;DHT22;1433;49.976;8.342;2022-12-18T03:09:50;-8.80;99.90
2851;DHT22;1433;49.976;8.342;2022-12-18T03:12:30;-8.80;99.90
2851;DHT22;1433;49.976;8.342;2022-12-18T03:15:02;-8.80;99.90
2851;DHT22;1433;49.976;8.342;2022-12-18T03:17:32;-8.80;99.90
2851;DHT22;1433;49.976;8.342;2022-12-18T03:20:08;-8.80;99.90
2851;DHT22;1433;49.976;8.342;2022-12-18T03:22:35;-8.80;99.90
2851;DHT22;1433;49.976;8.342;2022-12-18T03:25:08;-8.80;99.90
2851;DHT22;1433;49.976;8.342;2022-12-18T03:27:37;-8.80;99.90
2851;DHT22;1433;49.976;8.342;2022-12-18T03:30:10;-8.90;99.90
2851;DHT22;1433;49.976;8.342;2022-12-18T03:32:44;-9.00;99.90
2851;DHT22;1433;49.976;8.342;2022-12-18T03:35:13;-9.00;99.90
2851;DHT22;1433;49.976;8.342;2022-12-18T03:37:43;-9.00;99.90
2851;DHT22;1433;49.976;8.342;2022-12-18T03:40:09;-9.10;99.90
2851;DHT22;1433;49.976;8.342;2022-12-18T03:45:20;-9.00;99.90
2851;DHT22;1433;49.976;8.342;2022-12-18T03:50:59;-9.00;99.90
2851;DHT22;1433;49.976;8.342;2022-12-18T03:56:11;-9.00;99.90
2851;DHT22;1433;49.976;8.342;2022-12-18T03:58:40;-9.00;99.90
2851;DHT22;1433;49.976;8.342;2022-12-18T04:01:16;-9.00;99.90
2851;DHT22;1433;49.976;8.342;2022-12-18T04:03:44;-9.00;99.90
2851;DHT22;1433;49.976;8.342;2022-12-18T04:06:14;-9.00;99.90
2851;DHT22;1433;49.976;8.342;2022-12-18T04:08:41;-9.00;99.90
2851;DHT22;1433;49.976;8.342;2022-12-18T04:11:09;-9.00;99.90
2851;DHT22;1433;49.976;8.342;2022-12-18T04:13:38;-8.90;99.90
2851;DHT22;1433;49.976;8.342;2022-12-18T04:16:09;-8.90;99.90
2851;DHT22;1433;49.976;8.342;2022-12-18T04:18:37;-8.80;99.90
2851;DHT22;1433;49.976;8.342;2022-12-18T04:21:03;-8.70;99.90
2851;DHT22;1433;49.976;8.342;2022-12-18T04:23:30;-8.60;99.90
2851;DHT22;1433;49.976;8.342;2022-12-18T04:25:57;-8.50;99.90
2851;DHT22;1433;49.976;8.342;2022-12-18T04:28:25;-8.40;99.90
2851;DHT22;1433;49.976;8.342;2022-12-18T04:30:52;-8.40;99.90
2851;DHT22;1433;49.976;8.342;2022-12-18T04:33:19;-8.40;99.90
2851;DHT22;1433;49.976;8.342;2022-12-18T04:35:45;-8.50;99.90
2851;DHT22;1433;49.976;8.342;2022-12-18T04:38:12;-8.50;99.90
2851;DHT22;1433;49.976;8.342;2022-12-18T04:40:39;-8.60;99.90
2851;DHT22;1433;49.976;8.342;2022-12-18T04:43:08;-8.60;99.90
2851;DHT22;1433;49.976;8.342;2022-12-18T04:45:35;-8.60;99.90
2851;DHT22;1433;49.976;8.342;2022-12-18T04:48:02;-8.50;99.90
2851;DHT22;1433;49.976;8.342;2022-12-18T04:50:29;-8.50;99.90
2851;DHT22;1433;49.976;8.342;2022-12-18T04:52:55;-8.50;99.90
2851;DHT22;1433;49.976;8.342;2022-12-18T04:55:22;-8.60;99.90
2851;DHT22;1433;49.976;8.342;2022-12-18T04:57:51;-8.60;99.90
2851;DHT22;1433;49.976;8.342;2022-12-18T05:00:18;-8.60;99.90
2851;DHT22;1433;49.976;8.342;2022-12-18T05:02:44;-8.60;99.90
2851;DHT22;1433;49.976;8.342;2022-12-18T05:05:10;-8.60;99.90
2851;DHT22;1433;49.976;8.342;2022-12-18T05:07:36;-8.60;99.90
2851;DHT22;1433;49.976;8.342;2022-12-18T05:10:03;-8.50;99.90
2851;DHT22;1433;49.976;8.342;2022-12-18T05:12:32;-8.50;99.90
2851;DHT22;1433;49.976;8.342;2022-12-18T05:14:58;-8.50;99.90
2851;DHT22;1433;49.976;8.342;2022-12-18T05:17:25;-8.50;99.90
2851;DHT22;1433;49.976;8.342;2022-12-18T05:19:51;-8.50;99.90
2851;DHT22;1433;49.976;8.342;2022-12-18T05:22:17;-8.50;99.90
2851;DHT22;1433;49.976;8.342;2022-12-18T05:24:43;-8.50;99.90
2851;DHT22;1433;49.976;8.342;2022-12-18T05:27:09;-8.50;99.90
2851;DHT22;1433;49.976;8.342;2022-12-18T05:29:35;-8.50;99.90
2851;DHT22;1433;49.976;8.342;2022-12-18T05:32:01;-8.60;99.90
2851;DHT22;1433;49.976;8.342;2022-12-18T05:34:28;-8.60;99.90
2851;DHT22;1433;49.976;8.342;2022-12-18T05:36:54;-8.60;99.90
2851;DHT22;1433;49.976;8.342;2022-12-18T05:39:20;-8.60;99.90
2851;DHT22;1433;49.976;8.342;2022-12-18T05:41:46;-8.60;99.90
2851;DHT22;1433;49.976;8.342;2022-12-18T05:44:12;-8.50;99.90
2851;DHT22;1433;49.976;8.342;2022-12-18T05:46:41;-8.60;99.90
2851;DHT22;1433;49.976;8.342;2022-12-18T05:49:07;-8.50;99.90
2851;DHT22;1433;49.976;8.342;2022-12-18T05:51:33;-8.40;99.90
2851;DHT22;1433;49.976;8.342;2022-12-18T05:53:59;-8.50;99.90
2851;DHT22;1433;49.976;8.342;2022-12-18T05:56:25;-8.50;99.90
2851;DHT22;1433;49.976;8.342;2022-12-18T05:58:53;-8.50;99.90
2851;DHT22;1433;49.976;8.342;2022-12-18T06:01:22;-8.50;99.90
2851;DHT22;1433;49.976;8.342;2022-12-18T06:03:48;-8.40;99.90
2851;DHT22;1433;49.976;8.342;2022-12-18T06:06:23;-8.40;99.90
2851;DHT22;1433;49.976;8.342;2022-12-18T06:08:51;-8.50;99.90
2851;DHT22;1433;49.976;8.342;2022-12-18T06:11:20;-8.50;99.90
2851;DHT22;1433;49.976;8.342;2022-12-18T06:13:49;-8.50;99.90
2851;DHT22;1433;49.976;8.342;2022-12-18T06:16:16;-8.50;99.90
2851;DHT22;1433;49.976;8.342;2022-12-18T06:18:42;-8.50;99.90
2851;DHT22;1433;49.976;8.342;2022-12-18T06:21:08;-8.50;99.90
2851;DHT22;1433;49.976;8.342;2022-12-18T06:23:35;-8.50;99.90
2851;DHT22;1433;49.976;8.342;2022-12-18T06:26:09;-8.50;99.90
2851;DHT22;1433;49.976;8.342;2022-12-18T06:28:36;-8.50;99.90
2851;DHT22;1433;49.976;8.342;2022-12-18T06:31:03;-8.60;99.90
2851;DHT22;1433;49.976;8.342;2022-12-18T06:33:30;-8.60;99.90
2851;DHT22;1433;49.976;8.342;2022-12-18T06:36:01;-8.60;99.90
2851;DHT22;1433;49.976;8.342;2022-12-18T06:38:27;-8.60;99.90
2851;DHT22;1433;49.976;8.342;2022-12-18T06:40:53;-8.60;99.90
2851;DHT22;1433;49.976;8.342;2022-12-18T06:43:22;-8.50;99.90
2851;DHT22;1433;49.976;8.342;2022-12-18T06:45:50;-8.50;99.90
2851;DHT22;1433;49.976;8.342;2022-12-18T06:48:19;-8.50;99.90
2851;DHT22;1433;49.976;8.342;2022-12-18T06:50:45;-8.50;99.90
2851;DHT22;1433;49.976;8.342;2022-12-18T06:53:11;-8.50;99.90
2851;DHT22;1433;49.976;8.342;2022-12-18T06:55:38;-8.60;99.90
2851;DHT22;1433;49.976;8.342;2022-12-18T06:58:04;-8.60;99.90
2851;DHT22;1433;49.976;8.342;2022-12-18T07:00:30;-8.50;99.90
2851;DHT22;1433;49.976;8.342;2022-12-18T07:02:56;-8.50;99.90
2851;DHT22;1433;49.976;8.342;2022-12-18T07:05:22;-8.60;99.90
2851;DHT22;1433;49.976;8.342;2022-12-18T07:07:48;-8.60;99.90
2851;DHT22;1433;49.976;8.342;2022-12-18T07:10:14;-8.70;99.90
2851;DHT22;1433;49.976;8.342;2022-12-18T07:12:41;-8.60;99.90
2851;DHT22;1433;49.976;8.342;2022-12-18T07:15:07;-8.60;99.90
2851;DHT22;1433;49.976;8.342;2022-12-18T07:17:34;-8.50;99.90
2851;DHT22;1433;49.976;8.342;2022-12-18T07:20:00;-8.50;99.90
2851;DHT22;1433;49.976;8.342;2022-12-18T07:22:26;-8.50;99.90
2851;DHT22;1433;49.976;8.342;2022-12-18T07:24:53;-8.50;99.90
2851;DHT22;1433;49.976;8.342;2022-12-18T07:27:19;-8.50;99.90
2851;DHT22;1433;49.976;8.342;2022-12-18T07:29:45;-8.50;99.90
2851;DHT22;1433;49.976;8.342;2022-12-18T07:32:11;-8.50;99.90
2851;DHT22;1433;49.976;8.342;2022-12-18T07:34:37;-8.50;99.90
2851;DHT22;1433;49.976;8.342;2022-12-18T07:37:03;-8.50;99.90
2851;DHT22;1433;49.976;8.342;2022-12-18T07:39:30;-8.50;99.90
2851;DHT22;1433;49.976;8.342;2022-12-18T07:41:57;-8.50;99.90
2851;DHT22;1433;49.976;8.342;2022-12-18T07:44:43;-8.50;99.90
2851;DHT22;1433;49.976;8.342;2022-12-18T07:47:09;-8.50;99.90
2851;DHT22;1433;49.976;8.342;2022-12-18T07:49:35;-8.50;99.90
2851;DHT22;1433;49.976;8.342;2022-12-18T07:52:01;-8.50;99.90
2851;DHT22;1433;49.976;8.342;2022-12-18T07:54:27;-8.40;99.90
2851;DHT22;1433;49.976;8.342;2022-12-18T07:56:53;-8.40;99.90
2851;DHT22;1433;49.976;8.342;2022-12-18T07:59:20;-8.40;99.90
2851;DHT22;1433;49.976;8.342;2022-12-18T08:01:46;-8.30;99.90
2851;DHT22;1433;49.976;8.342;2022-12-18T08:04:12;-8.20;99.90
2851;DHT22;1433;49.976;8.342;2022-12-18T08:06:38;-8.10;99.90
2851;DHT22;1433;49.976;8.342;2022-12-18T08:09:04;-8.00;99.90
2851;DHT22;1433;49.976;8.342;2022-12-18T08:11:30;-7.90;99.90
2851;DHT22;1433;49.976;8.342;2022-12-18T08:13:57;-7.80;99.90
2851;DHT22;1433;49.976;8.342;2022-12-18T08:16:24;-7.70;99.90
2851;DHT22;1433;49.976;8.342;2022-12-18T08:18:51;-7.70;99.90
2851;DHT22;1433;49.976;8.342;2022-12-18T08:21:21;-7.70;99.90
2851;DHT22;1433;49.976;8.342;2022-12-18T08:23:53;-7.60;99.90
2851;DHT22;1433;49.976;8.342;2022-12-18T08:26:21;-7.60;99.90
2851;DHT22;1433;49.976;8.342;2022-12-18T08:28:48;-7.50;99.90
2851;DHT22;1433;49.976;8.342;2022-12-18T08:31:14;-7.50;99.90
2851;DHT22;1433;49.976;8.342;2022-12-18T08:33:41;-7.50;99.90
2851;DHT22;1433;49.976;8.342;2022-12-18T08:36:08;-7.40;99.90
2851;DHT22;1433;49.976;8.342;2022-12-18T08:38:35;-7.30;99.90
2851;DHT22;1433;49.976;8.342;2022-12-18T08:41:04;-7.30;99.90
2851;DHT22;1433;49.976;8.342;2022-12-18T08:43:30;-7.20;99.90
2851;DHT22;1433;49.976;8.342;2022-12-18T08:46:24;-7.20;99.90
2851;DHT22;1433;49.976;8.342;2022-12-18T08:48:52;-7.10;99.90
2851;DHT22;1433;49.976;8.342;2022-12-18T08:51:19;-7.10;99.90
2851;DHT22;1433;49.976;8.342;2022-12-18T08:53:45;-7.00;99.90
2851;DHT22;1433;49.976;8.342;2022-12-18T08:56:13;-6.90;99.90
2851;DHT22;1433;49.976;8.342;2022-12-18T08:58:40;-6.90;99.90
2851;DHT22;1433;49.976;8.342;2022-12-18T09:01:10;-6.80;99.90
2851;DHT22;1433;49.976;8.342;2022-12-18T09:03:37;-6.80;99.90
2851;DHT22;1433;49.976;8.342;2022-12-18T09:06:03;-6.70;99.90
2851;DHT22;1433;49.976;8.342;2022-12-18T09:08:30;-6.70;99.90
2851;DHT22;1433;49.976;8.342;2022-12-18T09:10:56;-6.60;99.90
2851;DHT22;1433;49.976;8.342;2022-12-18T09:13:23;-6.60;99.90
2851;DHT22;1433;49.976;8.342;2022-12-18T09:15:52;-6.50;99.90
2851;DHT22;1433;49.976;8.342;2022-12-18T09:18:20;-6.50;99.90
2851;DHT22;1433;49.976;8.342;2022-12-18T09:20:46;-6.40;99.90
2851;DHT22;1433;49.976;8.342;2022-12-18T09:23:15;-6.40;99.90
2851;DHT22;1433;49.976;8.342;2022-12-18T09:25:44;-6.40;99.90
2851;DHT22;1433;49.976;8.342;2022-12-18T09:28:13;-6.40;99.90
2851;DHT22;1433;49.976;8.342;2022-12-18T09:30:43;-6.30;99.90
2851;DHT22;1433;49.976;8.342;2022-12-18T09:33:13;-6.40;99.90
2851;DHT22;1433;49.976;8.342;2022-12-18T09:35:52;-6.20;99.90
2851;DHT22;1433;49.976;8.342;2022-12-18T09:38:19;-6.10;99.90
2851;DHT22;1433;49.976;8.342;2022-12-18T09:40:48;-6.00;99.90
2851;DHT22;1433;49.976;8.342;2022-12-18T09:43:21;-5.90;99.90
2851;DHT22;1433;49.976;8.342;2022-12-18T09:45:51;-5.80;99.90
2851;DHT22;1433;49.976;8.342;2022-12-18T09:48:27;-5.60;99.90
2851;DHT22;1433;49.976;8.342;2022-12-18T09:50:57;-5.60;99.90
2851;DHT22;1433;49.976;8.342;2022-12-18T09:53:26;-5.50;99.90
2851;DHT22;1433;49.976;8.342;2022-12-18T09:55:54;-5.40;99.90
2851;DHT22;1433;49.976;8.342;2022-12-18T09:58:36;-5.30;99.90
2851;DHT22;1433;49.976;8.342;2022-12-18T10:01:09;-5.20;99.90
2851;DHT22;1433;49.976;8.342;2022-12-18T10:03:36;-5.20;99.90
2851;DHT22;1433;49.976;8.342;2022-12-18T10:06:06;-5.20;99.90
2851;DHT22;1433;49.976;8.342;2022-12-18T10:09:01;-5.10;99.90
2851;DHT22;1433;49.976;8.342;2022-12-18T10:14:05;-4.90;99.90
2851;DHT22;1433;49.976;8.342;2022-12-18T10:16:35;-4.80;99.90
2851;DHT22;1433;49.976;8.342;2022-12-18T10:26:56;-4.20;99.90
2851;DHT22;1433;49.976;8.342;2022-12-18T10:29:25;-4.10;99.90
2851;DHT22;1433;49.976;8.342;2022-12-18T10:31:51;-4.00;99.90
2851;DHT22;1433;49.976;8.342;2022-12-18T10:34:17;-3.80;99.90
2851;DHT22;1433;49.976;8.342;2022-12-18T10:36:43;-3.70;99.90
2851;DHT22;1433;49.976;8.342;2022-12-18T10:39:19;-3.60;99.90
2851;DHT22;1433;49.976;8.342;2022-12-18T10:41:46;-3.50;99.90
2851;DHT22;1433;49.976;8.342;2022-12-18T10:44:20;-3.40;99.90
2851;DHT22;1433;49.976;8.342;2022-12-18T10:46:54;-3.40;99.90
2851;DHT22;1433;49.976;8.342;2022-12-18T10:49:34;-3.40;99.90
2851;DHT22;1433;49.976;8.342;2022-12-18T10:54:58;-3.30;99.90
2851;DHT22;1433;49.976;8.342;2022-12-18T10:57:38;-3.20;99.90
2851;DHT22;1433;49.976;8.342;2022-12-18T11:00:27;-3.00;99.90
2851;DHT22;1433;49.976;8.342;2022-12-18T11:02:54;-2.90;99.90
2851;DHT22;1433;49.976;8.342;2022-12-18T11:05:27;-2.90;99.90
2851;DHT22;1433;49.976;8.342;2022-12-18T11:07:55;-2.80;99.90
2851;DHT22;1433;49.976;8.342;2022-12-18T11:10:33;-2.90;99.90
2851;DHT22;1433;49.976;8.342;2022-12-18T11:13:20;-2.80;99.90
2851;DHT22;1433;49.976;8.342;2022-12-18T11:15:55;-2.80;99.90
2851;DHT22;1433;49.976;8.342;2022-12-18T11:18:30;-2.70;99.90
2851;DHT22;1433;49.976;8.342;2022-12-18T11:21:09;-2.60;99.90
2851;DHT22;1433;49.976;8.342;2022-12-18T11:23:37;-2.50;99.90
2851;DHT22;1433;49.976;8.342;2022-12-18T11:26:05;-2.40;99.90
2851;DHT22;1433;49.976;8.342;2022-12-18T11:28:40;-2.40;99.90
2851;DHT22;1433;49.976;8.342;2022-12-18T11:31:25;-2.40;99.90
2851;DHT22;1433;49.976;8.342;2022-12-18T11:36:33;-2.40;99.90
2851;DHT22;1433;49.976;8.342;2022-12-18T11:38:58;-2.30;99.90
2851;DHT22;1433;49.976;8.342;2022-12-18T11:44:25;-2.10;99.90
2851;DHT22;1433;49.976;8.342;2022-12-18T11:47:03;-2.10;99.90
2851;DHT22;1433;49.976;8.342;2022-12-18T11:49:34;-2.00;99.90
2851;DHT22;1433;49.976;8.342;2022-12-18T11:55:37;-2.00;99.90
2851;DHT22;1433;49.976;8.342;2022-12-18T11:57:59;-2.00;99.90
2851;DHT22;1433;49.976;8.342;2022-12-18T12:00:22;-1.90;99.90
2851;DHT22;1433;49.976;8.342;2022-12-18T12:05:55;-1.70;99.90
2851;DHT22;1433;49.976;8.342;2022-12-18T12:19:32;-1.70;99.90
2851;DHT22;1433;49.976;8.342;2022-12-18T12:24:53;-1.60;99.90
2851;DHT22;1433;49.976;8.342;2022-12-18T12:30:18;-1.60;99.90
2851;DHT22;1433;49.976;8.342;2022-12-18T12:41:06;-1.50;99.90
2851;DHT22;1433;49.976;8.342;2022-12-18T12:43:44;-1.40;99.90
2851;DHT22;1433;49.976;8.342;2022-12-18T12:46:15;-1.40;99.90
2851;DHT22;1433;49.976;8.342;2022-12-18T12:48:51;-1.50;99.90
2851;DHT22;1433;49.976;8.342;2022-12-18T12:51:28;-1.50;99.90
2851;DHT22;1433;49.976;8.342;2022-12-18T12:53:56;-1.60;99.90
2851;DHT22;1433;49.976;8.342;2022-12-18T12:56:26;-1.50;99.90
2851;DHT22;1433;49.976;8.342;2022-12-18T13:04:32;-1.60;99.90
2851;DHT22;1433;49.976;8.342;2022-12-18T13:07:11;-1.60;99.90
2851;DHT22;1433;49.976;8.342;2022-12-18T13:10:10;-1.60;99.90
2851;DHT22;1433;49.976;8.342;2022-12-18T13:12:12;-1.60;99.90
2851;DHT22;1433;49.976;8.342;2022-12-18T13:15:33;-1.60;99.90
2851;DHT22;1433;49.976;8.342;2022-12-18T13:17:33;-1.60;99.90
2851;DHT22;1433;49.976;8.342;2022-12-18T13:20:11;-1.70;99.90
2851;DHT22;1433;49.976;8.342;2022-12-18T13:22:46;-1.80;99.90
2851;DHT22;1433;49.976;8.342;2022-12-18T13:25:32;-1.80;99.90
2851;DHT22;1433;49.976;8.342;2022-12-18T13:38:36;-1.80;99.90
2851;DHT22;1433;49.976;8.342;2022-12-18T13:43:46;-1.70;99.90
2851;DHT22;1433;49.976;8.342;2022-12-18T13:51:26;-2.00;99.90
2851;DHT22;1433;49.976;8.342;2022-12-18T13:56:48;-2.00;99.90
2851;DHT22;1433;49.976;8.342;2022-12-18T13:59:20;-2.00;99.90
2851;DHT22;1433;49.976;8.342;2022-12-18T14:01:59;-2.10;99.90
2851;DHT22;1433;49.976;8.342;2022-12-18T14:04:28;-2.10;99.90
2851;DHT22;1433;49.976;8.342;2022-12-18T14:06:58;-2.10;99.90
2851;DHT22;1433;49.976;8.342;2022-12-18T14:09:28;-2.20;99.90
2851;DHT22;1433;49.976;8.342;2022-12-18T14:11:55;-2.20;99.90
2851;DHT22;1433;49.976;8.342;2022-12-18T14:14:24;-2.30;99.90
2851;DHT22;1433;49.976;8.342;2022-12-18T14:16:51;-2.30;99.90
2851;DHT22;1433;49.976;8.342;2022-12-18T14:19:18;-2.30;99.90
2851;DHT22;1433;49.976;8.342;2022-12-18T14:21:46;-2.30;99.90
2851;DHT22;1433;49.976;8.342;2022-12-18T14:24:32;-2.40;99.90
2851;DHT22;1433;49.976;8.342;2022-12-18T14:27:12;-2.30;99.90
2851;DHT22;1433;49.976;8.342;2022-12-18T14:29:30;-2.40;99.90
2851;DHT22;1433;49.976;8.342;2022-12-18T14:32:14;-2.40;99.90
2851;DHT22;1433;49.976;8.342;2022-12-18T14:34:56;-2.40;99.90
2851;DHT22;1433;49.976;8.342;2022-12-18T14:37:25;-2.50;99.90
2851;DHT22;1433;49.976;8.342;2022-12-18T14:40:00;-2.60;99.90
2851;DHT22;1433;49.976;8.342;2022-12-18T14:42:27;-2.70;99.90
2851;DHT22;1433;49.976;8.342;2022-12-18T14:47:59;-2.80;99.90
2851;DHT22;1433;49.976;8.342;2022-12-18T14:50:25;-2.80;99.90
2851;DHT22;1433;49.976;8.342;2022-12-18T14:52:52;-2.80;99.90
2851;DHT22;1433;49.976;8.342;2022-12-18T14:55:20;-2.80;99.90
2851;DHT22;1433;49.976;8.342;2022-12-18T14:57:50;-2.90;99.90
2851;DHT22;1433;49.976;8.342;2022-12-18T15:00:21;-2.90;99.90
2851;DHT22;1433;49.976;8.342;2022-12-18T15:02:55;-3.00;99.90
2851;DHT22;1433;49.976;8.342;2022-12-18T15:05:27;-3.00;99.90
2851;DHT22;1433;49.976;8.342;2022-12-18T15:07:56;-3.00;99.90
2851;DHT22;1433;49.976;8.342;2022-12-18T15:10:30;-3.10;99.90
2851;DHT22;1433;49.976;8.342;2022-12-18T15:20:43;-3.20;99.90
2851;DHT22;1433;49.976;8.342;2022-12-18T15:25:54;-3.20;99.90
2851;DHT22;1433;49.976;8.342;2022-12-18T15:28:23;-3.30;99.90
2851;DHT22;1433;49.976;8.342;2022-12-18T15:31:02;-3.30;99.90
2851;DHT22;1433;49.976;8.342;2022-12-18T15:33:43;-3.30;99.90
2851;DHT22;1433;49.976;8.342;2022-12-18T15:36:14;-3.40;99.90
2851;DHT22;1433;49.976;8.342;2022-12-18T15:38:41;-3.40;99.90
2851;DHT22;1433;49.976;8.342;2022-12-18T15:41:15;-3.40;99.90
2851;DHT22;1433;49.976;8.342;2022-12-18T15:43:41;-3.40;99.90
2851;DHT22;1433;49.976;8.342;2022-12-18T15:46:14;-3.40;99.90
2851;DHT22;1433;49.976;8.342;2022-12-18T15:48:50;-3.40;99.90
2851;DHT22;1433;49.976;8.342;2022-12-18T15:51:31;-3.40;99.90
2851;DHT22;1433;49.976;8.342;2022-12-18T15:53:56;-3.40;99.90
2851;DHT22;1433;49.976;8.342;2022-12-18T15:56:24;-3.40;99.90
2851;DHT22;1433;49.976;8.342;2022-12-18T15:59:15;-3.40;99.90
2851;DHT22;1433;49.976;8.342;2022-12-18T16:01:44;-3.40;99.90
2851;DHT22;1433;49.976;8.342;2022-12-18T16:04:12;-3.40;99.90
2851;DHT22;1433;49.976;8.342;2022-12-18T16:06:39;-3.40;99.90
2851;DHT22;1433;49.976;8.342;2022-12-18T16:09:06;-3.40;99.90
2851;DHT22;1433;49.976;8.342;2022-12-18T16:11:33;-3.40;99.90
2851;DHT22;1433;49.976;8.342;2022-12-18T16:14:19;-3.40;99.90
2851;DHT22;1433;49.976;8.342;2022-12-18T16:16:47;-3.40;99.90
2851;DHT22;1433;49.976;8.342;2022-12-18T16:19:13;-3.40;99.90
2851;DHT22;1433;49.976;8.342;2022-12-18T16:21:40;-3.40;99.90
2851;DHT22;1433;49.976;8.342;2022-12-18T16:24:24;-3.40;99.90
2851;DHT22;1433;49.976;8.342;2022-12-18T16:26:52;-3.40;99.90
2851;DHT22;1433;49.976;8.342;2022-12-18T16:29:19;-3.40;99.90
2851;DHT22;1433;49.976;8.342;2022-12-18T16:31:51;-3.40;99.90
2851;DHT22;1433;49.976;8.342;2022-12-18T16:34:29;-3.40;99.90
2851;DHT22;1433;49.976;8.342;2022-12-18T16:36:57;-3.30;99.90
2851;DHT22;1433;49.976;8.342;2022-12-18T16:39:25;-3.30;99.90
2851;DHT22;1433;49.976;8.342;2022-12-18T16:41:51;-3.30;99.90
2851;DHT22;1433;49.976;8.342;2022-12-18T16:44:18;-3.30;99.90
2851;DHT22;1433;49.976;8.342;2022-12-18T16:46:45;-3.30;99.90
2851;DHT22;1433;49.976;8.342;2022-12-18T16:49:12;-3.30;99.90
2851;DHT22;1433;49.976;8.342;2022-12-18T16:51:39;-3.30;99.90
2851;DHT22;1433;49.976;8.342;2022-12-18T16:54:06;-3.30;99.90
2851;DHT22;1433;49.976;8.342;2022-12-18T16:56:32;-3.20;99.90
2851;DHT22;1433;49.976;8.342;2022-12-18T16:59:00;-3.20;99.90
2851;DHT22;1433;49.976;8.342;2022-12-18T17:01:28;-3.30;99.90
2851;DHT22;1433;49.976;8.342;2022-12-18T17:04:03;-3.30;99.90
2851;DHT22;1433;49.976;8.342;2022-12-18T17:06:32;-3.30;99.90
2851;DHT22;1433;49.976;8.342;2022-12-18T17:09:01;-3.30;99.90
2851;DHT22;1433;49.976;8.342;2022-12-18T17:11:31;-3.30;99.90
2851;DHT22;1433;49.976;8.342;2022-12-18T17:13:58;-3.30;99.90
2851;DHT22;1433;49.976;8.342;2022-12-18T17:16:25;-3.30;99.90
2851;DHT22;1433;49.976;8.342;2022-12-18T17:18:51;-3.30;99.90
2851;DHT22;1433;49.976;8.342;2022-12-18T17:21:18;-3.30;99.90
2851;DHT22;1433;49.976;8.342;2022-12-18T17:23:46;-3.10;99.90
2851;DHT22;1433;49.976;8.342;2022-12-18T17:26:13;-3.20;99.90
2851;DHT22;1433;49.976;8.342;2022-12-18T17:28:40;-3.20;99.90
2851;DHT22;1433;49.976;8.342;2022-12-18T17:31:19;-3.10;99.90
2851;DHT22;1433;49.976;8.342;2022-12-18T17:33:46;-3.10;99.90
2851;DHT22;1433;49.976;8.342;2022-12-18T17:36:13;-3.10;99.90
2851;DHT22;1433;49.976;8.342;2022-12-18T17:38:39;-3.00;99.90
2851;DHT22;1433;49.976;8.342;2022-12-18T17:41:10;-3.00;99.90
2851;DHT22;1433;49.976;8.342;2022-12-18T17:43:37;-2.90;99.90
2851;DHT22;1433;49.976;8.342;2022-12-18T17:46:13;-2.80;99.90
2851;DHT22;1433;49.976;8.342;2022-12-18T17:48:40;-2.90;99.90
2851;DHT22;1433;49.976;8.342;2022-12-18T17:51:07;-3.00;99.90
2851;DHT22;1433;49.976;8.342;2022-12-18T17:53:35;-3.00;99.90
2851;DHT22;1433;49.976;8.342;2022-12-18T17:56:01;-2.90;99.90
2851;DHT22;1433;49.976;8.342;2022-12-18T17:58:30;-2.90;99.90
2851;DHT22;1433;49.976;8.342;2022-12-18T18:00:56;-2.90;99.90
2851;DHT22;1433;49.976;8.342;2022-12-18T18:03:25;-2.90;99.90
2851;DHT22;1433;49.976;8.342;2022-12-18T18:05:56;-2.90;99.90
2851;DHT22;1433;49.976;8.342;2022-12-18T18:08:23;-2.90;99.90
2851;DHT22;1433;49.976;8.342;2022-12-18T18:10:49;-2.80;99.90
2851;DHT22;1433;49.976;8.342;2022-12-18T18:13:24;-2.90;99.90
2851;DHT22;1433;49.976;8.342;2022-12-18T18:16:10;-2.80;99.90
2851;DHT22;1433;49.976;8.342;2022-12-18T18:18:37;-2.80;99.90
2851;DHT22;1433;49.976;8.342;2022-12-18T18:21:05;-2.80;99.90
2851;DHT22;1433;49.976;8.342;2022-12-18T18:23:32;-2.70;99.90